sensor_id;sensor_type;location;lat;lon;timestamp;pressure;altitude;pressure_sealevel;temperature;humidity
57024;BME280;42916;54.346;18.562;2024-03-02T00:00:27;100103.00;;;7.35;100.00
57024;BME280;42916;54.346;18.562;2024-03-02T00:03:13;100098.95;;;7.37;100.00
57024;BME280;42916;54.346;18.562;2024-03-02T00:05:40;100104.67;;;7.39;100.00
57024;BME280;42916;54.346;18.562;2024-03-02T00:08:07;100104.85;;;7.40;100.00
57024;BME280;42916;54.346;18.562;2024-03-02T00:10:38;100106.51;;;7.39;100.00
57024;BME280;42916;54.346;18.562;2024-03-02T00:13:06;100098.02;;;7.38;100.00
57024;BME280;42916;54.346;18.562;2024-03-02T00:15:45;100095.79;;;7.38;100.00
57024;BME280;42916;54.346;18.562;2024-03-02T00:18:13;100099.98;;;7.36;100.00
57024;BME280;42916;54.346;18.562;2024-03-02T00:20:40;100094.15;;;7.34;100.00
57024;BME280;42916;54.346;18.562;2024-03-02T00:23:08;100088.94;;;7.33;100.00
57024;BME280;42916;54.346;18.562;2024-03-02T00:25:39;100090.48;;;7.32;100.00
57024;BME280;42916;54.346;18.562;2024-03-02T00:31:10;100101.98;;;7.31;100.00
57024;BME280;42916;54.346;18.562;2024-03-02T00:33:42;100101.88;;;7.31;100.00
57024;BME280;42916;54.346;18.562;2024-03-02T00:36:10;100105.77;;;7.28;100.00
57024;BME280;42916;54.346;18.562;2024-03-02T00:38:50;100104.23;;;7.28;100.00
57024;BME280;42916;54.346;18.562;2024-03-02T00:41:24;100101.20;;;7.26;100.00
57024;BME280;42916;54.346;18.562;2024-03-02T00:43:59;100091.43;;;7.25;100.00
57024;BME280;42916;54.346;18.562;2024-03-02T00:46:32;100090.63;;;7.23;100.00
57024;BME280;42916;54.346;18.562;2024-03-02T00:49:00;100083.60;;;7.21;100.00
57024;BME280;42916;54.346;18.562;2024-03-02T00:51:28;100088.67;;;7.20;100.00
57024;BME280;42916;54.346;18.562;2024-03-02T00:53:59;100086.37;;;7.18;100.00
57024;BME280;42916;54.346;18.562;2024-03-02T00:56:25;100088.35;;;7.17;100.00
57024;BME280;42916;54.346;18.562;2024-03-02T00:58:52;100084.16;;;7.16;100.00
57024;BME280;42916;54.346;18.562;2024-03-02T01:01:19;100079.55;;;7.15;100.00
57024;BME280;42916;54.346;18.562;2024-03-02T01:03:45;100085.81;;;7.15;100.00
57024;BME280;42916;54.346;18.562;2024-03-02T01:06:11;100088.25;;;7.15;100.00
57024;BME280;42916;54.346;18.562;2024-03-02T01:08:39;100088.36;;;7.14;100.00
57024;BME280;42916;54.346;18.562;2024-03-02T01:11:06;100084.95;;;7.12;100.00
57024;BME280;42916;54.346;18.562;2024-03-02T01:13:32;100079.64;;;7.11;100.00
57024;BME280;42916;54.346;18.562;2024-03-02T01:15:59;100081.61;;;7.10;100.00
57024;BME280;42916;54.346;18.562;2024-03-02T01:18:25;100086.77;;;7.09;100.00
57024;BME280;42916;54.346;18.562;2024-03-02T01:20:52;100090.05;;;7.07;100.00
57024;BME280;42916;54.346;18.562;2024-03-02T01:23:19;100086.79;;;7.06;100.00
57024;BME280;42916;54.346;18.562;2024-03-02T01:25:48;100090.83;;;7.06;100.00
57024;BME280;42916;54.346;18.562;2024-03-02T01:28:14;100087.02;;;7.05;100.00
57024;BME280;42916;54.346;18.562;2024-03-02T01:30:41;100084.19;;;7.03;100.00
57024;BME280;42916;54.346;18.562;2024-03-02T01:33:07;100080.31;;;7.02;100.00
57024;BME280;42916;54.346;18.562;2024-03-02T01:35:33;100080.39;;;7.00;100.00
57024;BME280;42916;54.346;18.562;2024-03-02T01:38:01;100074.55;;;6.98;100.00
57024;BME280;42916;54.346;18.562;2024-03-02T01:40:27;100072.21;;;6.97;100.00
57024;BME280;42916;54.346;18.562;2024-03-02T01:42:54;100072.23;;;6.95;100.00
57024;BME280;42916;54.346;18.562;2024-03-02T01:45:21;100075.59;;;6.96;100.00
57024;BME280;42916;54.346;18.562;2024-03-02T01:47:47;100076.55;;;6.95;100.00
57024;BME280;42916;54.346;18.562;2024-03-02T01:50:14;100076.42;;;6.94;100.00
57024;BME280;42916;54.346;18.562;2024-03-02T01:52:40;100068.98;;;6.93;100.00
57024;BME280;42916;54.346;18.562;2024-03-02T01:55:07;100072.59;;;6.92;100.00
57024;BME280;42916;54.346;18.562;2024-03-02T01:57:34;100069.75;;;6.90;100.00
57024;BME280;42916;54.346;18.562;2024-03-02T02:00:01;100072.64;;;6.90;100.00
57024;BME280;42916;54.346;18.562;2024-03-02T02:02:37;100077.49;;;6.88;100.00
57024;BME280;42916;54.346;18.562;2024-03-02T02:05:03;100073.42;;;6.88;100.00
57024;BME280;42916;54.346;18.562;2024-03-02T02:07:30;100066.81;;;6.87;100.00
57024;BME280;42916;54.346;18.562;2024-03-02T02:09:57;100064.82;;;6.88;100.00
57024;BME280;42916;54.346;18.562;2024-03-02T02:12:24;100064.59;;;6.87;100.00
57024;BME280;42916;54.346;18.562;2024-03-02T02:14:50;100061.60;;;6.86;100.00
57024;BME280;42916;54.346;18.562;2024-03-02T02:17:17;100067.39;;;6.86;100.00
57024;BME280;42916;54.346;18.562;2024-03-02T02:19:43;100072.98;;;6.85;100.00
57024;BME280;42916;54.346;18.562;2024-03-02T02:22:11;100071.92;;;6.84;100.00
57024;BME280;42916;54.346;18.562;2024-03-02T02:24:41;100069.99;;;6.82;100.00
57024;BME280;42916;54.346;18.562;2024-03-02T02:27:08;100067.16;;;6.81;100.00
57024;BME280;42916;54.346;18.562;2024-03-02T02:29:34;100070.48;;;6.78;100.00
57024;BME280;42916;54.346;18.562;2024-03-02T02:32:00;100073.44;;;6.78;100.00
57024;BME280;42916;54.346;18.562;2024-03-02T02:34:26;100071.89;;;6.77;100.00
57024;BME280;42916;54.346;18.562;2024-03-02T02:36:53;100070.73;;;6.76;100.00
57024;BME280;42916;54.346;18.562;2024-03-02T02:39:21;100070.35;;;6.75;100.00
57024;BME280;42916;54.346;18.562;2024-03-02T02:41:48;100065.68;;;6.75;100.00
57024;BME280;42916;54.346;18.562;2024-03-02T02:44:14;100064.49;;;6.74;100.00
57024;BME280;42916;54.346;18.562;2024-03-02T02:46:41;100056.36;;;6.73;100.00
57024;BME280;42916;54.346;18.562;2024-03-02T02:49:07;100052.94;;;6.72;100.00
57024;BME280;42916;54.346;18.562;2024-03-02T02:51:33;100052.73;;;6.71;100.00
57024;BME280;42916;54.346;18.562;2024-03-02T02:53:59;100046.48;;;6.71;100.00
57024;BME280;42916;54.346;18.562;2024-03-02T02:56:25;100043.80;;;6.70;100.00
57024;BME280;42916;54.346;18.562;2024-03-02T02:58:51;100041.66;;;6.68;100.00
57024;BME280;42916;54.346;18.562;2024-03-02T03:01:17;100041.73;;;6.67;100.00
57024;BME280;42916;54.346;18.562;2024-03-02T03:03:44;100045.14;;;6.67;100.00
57024;BME280;42916;54.346;18.562;2024-03-02T03:06:11;100042.95;;;6.66;100.00
57024;BME280;42916;54.346;18.562;2024-03-02T03:08:38;100041.17;;;6.66;100.00
57024;BME280;42916;54.346;18.562;2024-03-02T03:11:04;100045.45;;;6.66;100.00
57024;BME280;42916;54.346;18.562;2024-03-02T03:13:34;100050.23;;;6.64;100.00
57024;BME280;42916;54.346;18.562;2024-03-02T03:16:00;100045.39;;;6.63;100.00
57024;BME280;42916;54.346;18.562;2024-03-02T03:18:26;100048.12;;;6.62;100.00
57024;BME280;42916;54.346;18.562;2024-03-02T03:20:53;100041.27;;;6.60;100.00
57024;BME280;42916;54.346;18.562;2024-03-02T03:23:19;100043.04;;;6.59;100.00
57024;BME280;42916;54.346;18.562;2024-03-02T03:25:45;100038.48;;;6.59;100.00
57024;BME280;42916;54.346;18.562;2024-03-02T03:28:11;100040.69;;;6.58;100.00
57024;BME280;42916;54.346;18.562;2024-03-02T03:30:38;100041.91;;;6.57;100.00
57024;BME280;42916;54.346;18.562;2024-03-02T03:33:05;100040.19;;;6.57;100.00
57024;BME280;42916;54.346;18.562;2024-03-02T03:35:34;100030.98;;;6.56;100.00
57024;BME280;42916;54.346;18.562;2024-03-02T03:38:00;100026.27;;;6.56;100.00
57024;BME280;42916;54.346;18.562;2024-03-02T03:40:26;100021.38;;;6.55;100.00
57024;BME280;42916;54.346;18.562;2024-03-02T03:42:52;100024.88;;;6.54;100.00
57024;BME280;42916;54.346;18.562;2024-03-02T03:45:19;100029.23;;;6.53;100.00
57024;BME280;42916;54.346;18.562;2024-03-02T03:47:45;100024.77;;;6.54;100.00
57024;BME280;42916;54.346;18.562;2024-03-02T03:50:11;100023.31;;;6.54;100.00
57024;BME280;42916;54.346;18.562;2024-03-02T03:52:38;100025.27;;;6.54;100.00
57024;BME280;42916;54.346;18.562;2024-03-02T03:55:04;100023.34;;;6.53;100.00
57024;BME280;42916;54.346;18.562;2024-03-02T03:57:31;100028.41;;;6.53;100.00
57024;BME280;42916;54.346;18.562;2024-03-02T03:59:57;100032.20;;;6.53;100.00
57024;BME280;42916;54.346;18.562;2024-03-02T04:02:23;100033.89;;;6.53;100.00
57024;BME280;42916;54.346;18.562;2024-03-02T04:04:50;100042.42;;;6.54;100.00
57024;BME280;42916;54.346;18.562;2024-03-02T04:07:16;100052.98;;;6.52;100.00
57024;BME280;42916;54.346;18.562;2024-03-02T04:09:42;100063.24;;;6.51;100.00
57024;BME280;42916;54.346;18.562;2024-03-02T04:12:08;100063.60;;;6.50;100.00
57024;BME280;42916;54.346;18.562;2024-03-02T04:14:34;100062.90;;;6.50;100.00
57024;BME280;42916;54.346;18.562;2024-03-02T04:17:00;100063.90;;;6.49;100.00
57024;BME280;42916;54.346;18.562;2024-03-02T04:19:26;100062.01;;;6.49;100.00
57024;BME280;42916;54.346;18.562;2024-03-02T04:21:53;100061.09;;;6.49;100.00
57024;BME280;42916;54.346;18.562;2024-03-02T04:24:19;100058.36;;;6.48;100.00
57024;BME280;42916;54.346;18.562;2024-03-02T04:26:45;100059.67;;;6.46;100.00
57024;BME280;42916;54.346;18.562;2024-03-02T04:29:11;100059.45;;;6.46;100.00
57024;BME280;42916;54.346;18.562;2024-03-02T04:31:37;100062.01;;;6.46;100.00
57024;BME280;42916;54.346;18.562;2024-03-02T04:34:03;100060.73;;;6.48;100.00
57024;BME280;42916;54.346;18.562;2024-03-02T04:36:29;100061.64;;;6.48;100.00
57024;BME280;42916;54.346;18.562;2024-03-02T04:38:55;100057.41;;;6.47;100.00
57024;BME280;42916;54.346;18.562;2024-03-02T04:41:21;100064.42;;;6.48;100.00
57024;BME280;42916;54.346;18.562;2024-03-02T04:43:47;100060.30;;;6.48;100.00
57024;BME280;42916;54.346;18.562;2024-03-02T04:46:13;100066.88;;;6.47;100.00
57024;BME280;42916;54.346;18.562;2024-03-02T04:48:39;100064.56;;;6.47;100.00
57024;BME280;42916;54.346;18.562;2024-03-02T04:51:05;100060.40;;;6.47;100.00
57024;BME280;42916;54.346;18.562;2024-03-02T04:53:31;100060.37;;;6.46;100.00
57024;BME280;42916;54.346;18.562;2024-03-02T04:55:57;100063.90;;;6.47;100.00
57024;BME280;42916;54.346;18.562;2024-03-02T04:58:23;100061.11;;;6.48;100.00
57024;BME280;42916;54.346;18.562;2024-03-02T05:00:49;100059.11;;;6.45;100.00
57024;BME280;42916;54.346;18.562;2024-03-02T05:03:15;100059.09;;;6.44;100.00
57024;BME280;42916;54.346;18.562;2024-03-02T05:05:42;100052.90;;;6.42;100.00
57024;BME280;42916;54.346;18.562;2024-03-02T05:08:08;100052.03;;;6.40;100.00
57024;BME280;42916;54.346;18.562;2024-03-02T05:10:34;100049.13;;;6.38;100.00
57024;BME280;42916;54.346;18.562;2024-03-02T05:13:02;100045.96;;;6.37;100.00
57024;BME280;42916;54.346;18.562;2024-03-02T05:15:28;100043.98;;;6.35;100.00
57024;BME280;42916;54.346;18.562;2024-03-02T05:17:54;100050.42;;;6.34;100.00
57024;BME280;42916;54.346;18.562;2024-03-02T05:20:22;100055.74;;;6.33;100.00
57024;BME280;42916;54.346;18.562;2024-03-02T05:22:49;100053.52;;;6.32;100.00
57024;BME280;42916;54.346;18.562;2024-03-02T05:25:15;100050.92;;;6.31;100.00
57024;BME280;42916;54.346;18.562;2024-03-02T05:27:41;100058.36;;;6.31;100.00
57024;BME280;42916;54.346;18.562;2024-03-02T05:30:08;100059.49;;;6.31;100.00
57024;BME280;42916;54.346;18.562;2024-03-02T05:32:34;100066.05;;;6.31;100.00
57024;BME280;42916;54.346;18.562;2024-03-02T05:35:00;100063.62;;;6.32;100.00
57024;BME280;42916;54.346;18.562;2024-03-02T05:37:26;100059.96;;;6.32;100.00
57024;BME280;42916;54.346;18.562;2024-03-02T05:39:53;100067.34;;;6.34;100.00
57024;BME280;42916;54.346;18.562;2024-03-02T05:42:19;100072.86;;;6.34;100.00
57024;BME280;42916;54.346;18.562;2024-03-02T05:44:45;100071.80;;;6.33;100.00
57024;BME280;42916;54.346;18.562;2024-03-02T05:47:11;100080.47;;;6.31;100.00
57024;BME280;42916;54.346;18.562;2024-03-02T05:49:38;100082.48;;;6.30;100.00
57024;BME280;42916;54.346;18.562;2024-03-02T05:52:04;100087.16;;;6.29;100.00
57024;BME280;42916;54.346;18.562;2024-03-02T05:54:30;100089.73;;;6.28;100.00
57024;BME280;42916;54.346;18.562;2024-03-02T05:56:56;100089.98;;;6.29;100.00
57024;BME280;42916;54.346;18.562;2024-03-02T05:59:22;100089.67;;;6.30;100.00
57024;BME280;42916;54.346;18.562;2024-03-02T06:01:48;100089.46;;;6.30;100.00
57024;BME280;42916;54.346;18.562;2024-03-02T06:04:20;100094.45;;;6.31;100.00
57024;BME280;42916;54.346;18.562;2024-03-02T06:06:47;100094.09;;;6.32;100.00
57024;BME280;42916;54.346;18.562;2024-03-02T06:09:15;100100.05;;;6.33;100.00
57024;BME280;42916;54.346;18.562;2024-03-02T06:11:42;100099.30;;;6.33;100.00
57024;BME280;42916;54.346;18.562;2024-03-02T06:14:08;100103.08;;;6.34;100.00
57024;BME280;42916;54.346;18.562;2024-03-02T06:16:35;100106.21;;;6.35;100.00
57024;BME280;42916;54.346;18.562;2024-03-02T06:19:01;100106.20;;;6.36;100.00
57024;BME280;42916;54.346;18.562;2024-03-02T06:21:28;100107.48;;;6.38;100.00
57024;BME280;42916;54.346;18.562;2024-03-02T06:23:54;100107.10;;;6.41;100.00
57024;BME280;42916;54.346;18.562;2024-03-02T06:26:20;100110.83;;;6.43;100.00
57024;BME280;42916;54.346;18.562;2024-03-02T06:28:46;100113.61;;;6.45;100.00
57024;BME280;42916;54.346;18.562;2024-03-02T06:31:13;100112.67;;;6.46;100.00
57024;BME280;42916;54.346;18.562;2024-03-02T06:33:39;100114.19;;;6.48;100.00
57024;BME280;42916;54.346;18.562;2024-03-02T06:36:06;100106.07;;;6.49;100.00
57024;BME280;42916;54.346;18.562;2024-03-02T06:38:35;100109.04;;;6.52;100.00
57024;BME280;42916;54.346;18.562;2024-03-02T06:41:01;100105.00;;;6.53;100.00
57024;BME280;42916;54.346;18.562;2024-03-02T06:43:27;100103.35;;;6.56;100.00
57024;BME280;42916;54.346;18.562;2024-03-02T06:45:53;100107.11;;;6.58;100.00
57024;BME280;42916;54.346;18.562;2024-03-02T06:48:19;100098.13;;;6.62;100.00
57024;BME280;42916;54.346;18.562;2024-03-02T06:50:47;100102.50;;;6.67;100.00
57024;BME280;42916;54.346;18.562;2024-03-02T06:53:16;100107.98;;;6.73;100.00
57024;BME280;42916;54.346;18.562;2024-03-02T06:55:46;100107.77;;;6.80;100.00
57024;BME280;42916;54.346;18.562;2024-03-02T06:58:13;100102.46;;;6.88;100.00
57024;BME280;42916;54.346;18.562;2024-03-02T07:00:44;100104.35;;;6.93;100.00
57024;BME280;42916;54.346;18.562;2024-03-02T07:03:10;100101.52;;;6.96;100.00
57024;BME280;42916;54.346;18.562;2024-03-02T07:05:37;100105.47;;;7.02;100.00
57024;BME280;42916;54.346;18.562;2024-03-02T07:08:04;100101.75;;;7.09;100.00
57024;BME280;42916;54.346;18.562;2024-03-02T07:10:33;100102.77;;;7.18;100.00
57024;BME280;42916;54.346;18.562;2024-03-02T07:13:00;100103.76;;;7.30;100.00
57024;BME280;42916;54.346;18.562;2024-03-02T07:15:26;100102.13;;;7.39;100.00
57024;BME280;42916;54.346;18.562;2024-03-02T07:17:55;100115.28;;;7.42;100.00
57024;BME280;42916;54.346;18.562;2024-03-02T07:20:21;100113.72;;;7.47;100.00
57024;BME280;42916;54.346;18.562;2024-03-02T07:22:48;100113.27;;;7.55;100.00
57024;BME280;42916;54.346;18.562;2024-03-02T07:25:14;100104.80;;;7.65;100.00
57024;BME280;42916;54.346;18.562;2024-03-02T07:27:40;100110.53;;;7.62;100.00
57024;BME280;42916;54.346;18.562;2024-03-02T07:30:07;100110.26;;;7.59;100.00
57024;BME280;42916;54.346;18.562;2024-03-02T07:32:33;100118.49;;;7.54;100.00
57024;BME280;42916;54.346;18.562;2024-03-02T07:34:59;100124.34;;;7.48;100.00
57024;BME280;42916;54.346;18.562;2024-03-02T07:37:27;100131.25;;;7.39;100.00
57024;BME280;42916;54.346;18.562;2024-03-02T07:39:54;100121.63;;;7.31;100.00
57024;BME280;42916;54.346;18.562;2024-03-02T07:42:20;100112.76;;;7.26;100.00
57024;BME280;42916;54.346;18.562;2024-03-02T07:44:46;100112.48;;;7.20;100.00
57024;BME280;42916;54.346;18.562;2024-03-02T07:47:12;100122.70;;;7.14;100.00
57024;BME280;42916;54.346;18.562;2024-03-02T07:49:38;100128.54;;;7.09;100.00
57024;BME280;42916;54.346;18.562;2024-03-02T07:52:14;100133.22;;;7.05;100.00
57024;BME280;42916;54.346;18.562;2024-03-02T07:54:43;100133.06;;;7.00;100.00
57024;BME280;42916;54.346;18.562;2024-03-02T07:57:10;100142.20;;;6.97;100.00
57024;BME280;42916;54.346;18.562;2024-03-02T07:59:42;100131.39;;;6.93;100.00
57024;BME280;42916;54.346;18.562;2024-03-02T08:02:09;100135.16;;;6.92;100.00
57024;BME280;42916;54.346;18.562;2024-03-02T08:04:42;100134.11;;;6.93;100.00
57024;BME280;42916;54.346;18.562;2024-03-02T08:07:25;100136.45;;;6.94;100.00
57024;BME280;42916;54.346;18.562;2024-03-02T08:09:51;100141.86;;;6.96;100.00
57024;BME280;42916;54.346;18.562;2024-03-02T08:12:17;100138.23;;;6.99;100.00
57024;BME280;42916;54.346;18.562;2024-03-02T08:14:45;100152.07;;;6.98;100.00
57024;BME280;42916;54.346;18.562;2024-03-02T08:17:14;100158.08;;;6.96;100.00
57024;BME280;42916;54.346;18.562;2024-03-02T08:19:44;100147.91;;;6.98;100.00
57024;BME280;42916;54.346;18.562;2024-03-02T08:22:13;100140.65;;;7.03;100.00
57024;BME280;42916;54.346;18.562;2024-03-02T08:24:45;100140.92;;;7.08;100.00
57024;BME280;42916;54.346;18.562;2024-03-02T08:27:11;100141.89;;;7.19;100.00
57024;BME280;42916;54.346;18.562;2024-03-02T08:29:38;100138.75;;;7.29;100.00
57024;BME280;42916;54.346;18.562;2024-03-02T08:32:05;100150.46;;;7.39;100.00
57024;BME280;42916;54.346;18.562;2024-03-02T08:34:32;100151.36;;;7.46;100.00
57024;BME280;42916;54.346;18.562;2024-03-02T08:36:58;100134.58;;;7.51;100.00
57024;BME280;42916;54.346;18.562;2024-03-02T08:39:24;100136.96;;;7.57;100.00
57024;BME280;42916;54.346;18.562;2024-03-02T08:41:50;100145.73;;;7.57;100.00
57024;BME280;42916;54.346;18.562;2024-03-02T08:44:16;100147.84;;;7.54;100.00
57024;BME280;42916;54.346;18.562;2024-03-02T08:46:43;100145.38;;;7.52;100.00
57024;BME280;42916;54.346;18.562;2024-03-02T08:49:10;100151.02;;;7.56;100.00
57024;BME280;42916;54.346;18.562;2024-03-02T08:51:36;100139.30;;;7.58;100.00
57024;BME280;42916;54.346;18.562;2024-03-02T08:54:03;100154.48;;;7.57;100.00
57024;BME280;42916;54.346;18.562;2024-03-02T08:56:30;100150.12;;;7.45;100.00
57024;BME280;42916;54.346;18.562;2024-03-02T08:58:57;100140.22;;;7.41;100.00
57024;BME280;42916;54.346;18.562;2024-03-02T09:01:23;100148.88;;;7.37;100.00
57024;BME280;42916;54.346;18.562;2024-03-02T09:03:49;100147.37;;;7.33;100.00
57024;BME280;42916;54.346;18.562;2024-03-02T09:06:15;100148.70;;;7.29;100.00
57024;BME280;42916;54.346;18.562;2024-03-02T09:08:46;100155.92;;;7.28;100.00
57024;BME280;42916;54.346;18.562;2024-03-02T09:11:12;100158.20;;;7.28;100.00
57024;BME280;42916;54.346;18.562;2024-03-02T09:13:38;100158.46;;;7.28;100.00
57024;BME280;42916;54.346;18.562;2024-03-02T09:16:04;100158.14;;;7.30;100.00
57024;BME280;42916;54.346;18.562;2024-03-02T09:18:31;100160.11;;;7.31;100.00
57024;BME280;42916;54.346;18.562;2024-03-02T09:20:57;100151.39;;;7.36;100.00
57024;BME280;42916;54.346;18.562;2024-03-02T09:23:23;100152.20;;;7.42;100.00
57024;BME280;42916;54.346;18.562;2024-03-02T09:25:50;100154.78;;;7.47;100.00
57024;BME280;42916;54.346;18.562;2024-03-02T09:28:16;100149.86;;;7.52;100.00
57024;BME280;42916;54.346;18.562;2024-03-02T09:30:42;100157.83;;;7.55;100.00
57024;BME280;42916;54.346;18.562;2024-03-02T09:33:08;100163.70;;;7.60;100.00
57024;BME280;42916;54.346;18.562;2024-03-02T09:35:35;100169.31;;;7.65;100.00
57024;BME280;42916;54.346;18.562;2024-03-02T09:38:01;100171.55;;;7.65;100.00
57024;BME280;42916;54.346;18.562;2024-03-02T09:40:27;100180.30;;;7.61;100.00
57024;BME280;42916;54.346;18.562;2024-03-02T09:43:13;100181.27;;;7.58;100.00
57024;BME280;42916;54.346;18.562;2024-03-02T09:45:40;100187.59;;;7.53;100.00
57024;BME280;42916;54.346;18.562;2024-03-02T09:48:07;100191.38;;;7.55;100.00
57024;BME280;42916;54.346;18.562;2024-03-02T09:50:33;100191.38;;;7.60;100.00
57024;BME280;42916;54.346;18.562;2024-03-02T09:52:59;100190.52;;;7.66;100.00
57024;BME280;42916;54.346;18.562;2024-03-02T09:55:25;100189.50;;;7.75;100.00
57024;BME280;42916;54.346;18.562;2024-03-02T09:57:51;100189.96;;;7.83;100.00
57024;BME280;42916;54.346;18.562;2024-03-02T10:00:17;100189.57;;;7.91;100.00
57024;BME280;42916;54.346;18.562;2024-03-02T10:02:43;100194.42;;;7.96;100.00
57024;BME280;42916;54.346;18.562;2024-03-02T10:05:10;100192.84;;;7.98;100.00
57024;BME280;42916;54.346;18.562;2024-03-02T10:07:38;100195.59;;;7.97;100.00
57024;BME280;42916;54.346;18.562;2024-03-02T10:10:14;100192.98;;;8.03;100.00
57024;BME280;42916;54.346;18.562;2024-03-02T10:12:40;100188.84;;;8.10;100.00
57024;BME280;42916;54.346;18.562;2024-03-02T10:15:07;100188.39;;;8.22;100.00
57024;BME280;42916;54.346;18.562;2024-03-02T10:17:35;100186.60;;;8.31;100.00
57024;BME280;42916;54.346;18.562;2024-03-02T10:20:24;100180.20;;;8.41;100.00
57024;BME280;42916;54.346;18.562;2024-03-02T10:22:51;100187.48;;;8.47;100.00
57024;BME280;42916;54.346;18.562;2024-03-02T10:25:37;100187.27;;;8.47;100.00
57024;BME280;42916;54.346;18.562;2024-03-02T10:28:04;100186.92;;;8.57;100.00
57024;BME280;42916;54.346;18.562;2024-03-02T10:30:35;100187.17;;;8.70;100.00
57024;BME280;42916;54.346;18.562;2024-03-02T10:33:02;100193.79;;;8.83;100.00
57024;BME280;42916;54.346;18.562;2024-03-02T10:35:29;100191.46;;;8.95;100.00
57024;BME280;42916;54.346;18.562;2024-03-02T10:38:01;100190.66;;;8.99;100.00
57024;BME280;42916;54.346;18.562;2024-03-02T10:40:29;100190.82;;;9.03;100.00
57024;BME280;42916;54.346;18.562;2024-03-02T10:42:55;100188.05;;;9.15;100.00
57024;BME280;42916;54.346;18.562;2024-03-02T10:45:23;100186.94;;;9.25;100.00
57024;BME280;42916;54.346;18.562;2024-03-02T10:47:50;100185.05;;;9.40;100.00
57024;BME280;42916;54.346;18.562;2024-03-02T10:50:16;100182.30;;;9.54;100.00
57024;BME280;42916;54.346;18.562;2024-03-02T10:52:43;100180.48;;;9.61;100.00
57024;BME280;42916;54.346;18.562;2024-03-02T10:55:09;100179.30;;;9.64;100.00
57024;BME280;42916;54.346;18.562;2024-03-02T10:57:49;100188.41;;;9.71;100.00
57024;BME280;42916;54.346;18.562;2024-03-02T11:00:17;100183.17;;;9.74;100.00
57024;BME280;42916;54.346;18.562;2024-03-02T11:02:56;100176.09;;;9.82;100.00
57024;BME280;42916;54.346;18.562;2024-03-02T11:05:28;100175.88;;;10.00;100.00
57024;BME280;42916;54.346;18.562;2024-03-02T11:08:01;100167.98;;;10.09;100.00
57024;BME280;42916;54.346;18.562;2024-03-02T11:10:34;100160.73;;;10.13;100.00
57024;BME280;42916;54.346;18.562;2024-03-02T11:13:04;100163.90;;;10.22;100.00
57024;BME280;42916;54.346;18.562;2024-03-02T11:15:34;100169.30;;;10.34;99.87
57024;BME280;42916;54.346;18.562;2024-03-02T11:18:04;100165.03;;;10.35;99.15
57024;BME280;42916;54.346;18.562;2024-03-02T11:20:31;100160.00;;;10.45;99.43
57024;BME280;42916;54.346;18.562;2024-03-02T11:23:04;100159.77;;;10.52;99.12
57024;BME280;42916;54.346;18.562;2024-03-02T11:25:31;100161.23;;;10.58;96.99
57024;BME280;42916;54.346;18.562;2024-03-02T11:28:03;100155.15;;;10.53;95.36
57024;BME280;42916;54.346;18.562;2024-03-02T11:33:05;100152.67;;;10.48;95.58
57024;BME280;42916;54.346;18.562;2024-03-02T11:35:35;100157.95;;;10.49;96.55
57024;BME280;42916;54.346;18.562;2024-03-02T11:38:01;100154.14;;;10.56;96.52
57024;BME280;42916;54.346;18.562;2024-03-02T11:40:30;100157.67;;;10.56;95.69
57024;BME280;42916;54.346;18.562;2024-03-02T11:42:59;100161.66;;;10.50;95.50
57024;BME280;42916;54.346;18.562;2024-03-02T11:45:26;100162.09;;;10.49;95.88
57024;BME280;42916;54.346;18.562;2024-03-02T11:47:57;100155.05;;;10.52;97.04
57024;BME280;42916;54.346;18.562;2024-03-02T11:50:33;100149.79;;;10.56;96.84
57024;BME280;42916;54.346;18.562;2024-03-02T11:53:00;100152.37;;;10.51;95.16
57024;BME280;42916;54.346;18.562;2024-03-02T11:55:26;100146.23;;;10.52;96.14
57024;BME280;42916;54.346;18.562;2024-03-02T11:57:53;100147.27;;;10.51;96.10
57024;BME280;42916;54.346;18.562;2024-03-02T12:00:20;100149.98;;;10.50;96.23
57024;BME280;42916;54.346;18.562;2024-03-02T12:02:47;100157.89;;;10.55;97.25
57024;BME280;42916;54.346;18.562;2024-03-02T12:05:26;100152.83;;;10.61;97.27
57024;BME280;42916;54.346;18.562;2024-03-02T12:08:03;100156.84;;;10.69;97.91
57024;BME280;42916;54.346;18.562;2024-03-02T12:10:30;100157.11;;;10.77;97.98
57024;BME280;42916;54.346;18.562;2024-03-02T12:13:00;100157.40;;;10.78;97.27
57024;BME280;42916;54.346;18.562;2024-03-02T12:15:28;100161.80;;;10.79;96.75
57024;BME280;42916;54.346;18.562;2024-03-02T12:17:56;100155.23;;;10.80;97.48
57024;BME280;42916;54.346;18.562;2024-03-02T12:20:23;100161.18;;;10.84;96.85
57024;BME280;42916;54.346;18.562;2024-03-02T12:22:51;100166.20;;;10.84;96.92
57024;BME280;42916;54.346;18.562;2024-03-02T12:25:22;100166.27;;;10.86;97.17
57024;BME280;42916;54.346;18.562;2024-03-02T12:27:51;100169.06;;;10.92;97.11
57024;BME280;42916;54.346;18.562;2024-03-02T12:30:19;100169.50;;;10.92;96.33
57024;BME280;42916;54.346;18.562;2024-03-02T12:32:45;100173.17;;;10.95;97.41
57024;BME280;42916;54.346;18.562;2024-03-02T12:35:12;100167.50;;;10.95;96.88
57024;BME280;42916;54.346;18.562;2024-03-02T12:37:45;100169.70;;;10.97;96.87
57024;BME280;42916;54.346;18.562;2024-03-02T12:40:12;100175.17;;;10.93;96.27
57024;BME280;42916;54.346;18.562;2024-03-02T12:42:39;100167.71;;;10.92;97.14
57024;BME280;42916;54.346;18.562;2024-03-02T12:45:06;100164.03;;;10.96;97.26
57024;BME280;42916;54.346;18.562;2024-03-02T12:47:34;100164.48;;;10.90;95.92